Terminal Aerodrome Forecast
Issued by NWS

Home | Current Version | Previous Version | Text Only | Print | Product List | Glossary On
Versions: 1 2 3 4 5 6 7 8 9 10 11 12 13 14 15 16 17 18
000
FTUS42 KILM 230520
TAFCRE
TAF
KCRE 230520Z 2306/2406 22008KT P6SM FEW090
      TEMPO 2309/2312 3SM BR
     FM231300 25007KT P6SM VCSH SCT070
     FM231600 25006KT P6SM VCTS BKN090CB
     FM240000 21010KT P6SM BKN090
     FM240300 23008KT P6SM BKN080=

USA.gov is the U.S. government's official web portal to all federal, state and local government web resources and services.